NCAR-RAP Real-Time Weather Data

Output produced by METARs form (17 October 2018  15:36 UTC)
found at http://weather.rap.ucar.edu/surface/
 
RJNT 171200Z 20003KT 170V240 9999 FEW025 SCT/// 14/12 Q1014
RJNT 171100Z 22004KT 9999 FEW030 SCT150 15/13 Q1014
RJNT 171000Z 18004KT 9999 FEW030 SCT160 16/13 Q1014
RJNT 170900Z 03003KT 360V070 9999 FEW030 17/11 Q1014
RJNT 170800Z 01004KT 350V070 9999 VCSH FEW025 FEW030TCU 18/12 Q1013
RJNT 170700Z 36008KT 9999 VCSH SCT030 19/12 Q1012
RJNT 170600Z 01009KT 9999 VCSH SCT030 19/12 Q1012
RJNT 170500Z 03006KT 330V090 9999 VCSH FEW020 FEW025CB SCT030 19/10 Q1012
RJNT 170400Z 36009KT 9999 FEW020 SCT030 BKN120 20/11 Q1012
RJNT 170300Z 31005KT 9999 VCSH FEW020 SCT040 BKN110 19/13 Q1012
RJNT 170200Z 23003KT 180V270 9999 VCSH FEW010 SCT050 BKN100 18/14 Q1012
RJNT 170100Z 30005KT 270V010 9999 -SHRA FEW010 SCT050 BKN080 16/14 Q1013
RJNT 170000Z 25004KT 9999 -SHRA FEW005 SCT040 BKN070 16/13 Q1013
RJNT 162300Z 21005KT 9999 -SHRA FEW005 BKN040 BKN080 15/14 Q1012
RJNT 162200Z 21005KT 9999 -SHRA FEW008 SCT025 BKN050 15/14 Q1012
RJNT 162110Z VRB02KT 9999 -SHRA FEW008 BKN030 FEW030CB BKN060 15/13 Q1012 RMK 1ST008 5CU030 1CB030 7SC060 A2988 CB 15KM NW MOV SW
RJNT 161200Z 21005KT 9999 FEW030 SCT050 BKN080 16/13 Q1011
RJNT 161100Z 22005KT 9999 FEW030 SCT050 BKN090 16/13 Q1012
RJNT 161000Z 21005KT 9999 FEW020 SCT050 BKN/// 17/13 Q1012
RJNT 160900Z VRB02KT 9999 FEW020 SCT050 BKN/// 18/13 Q1012
RJNT 160800Z 31005KT 9999 FEW020 SCT050 BKN/// 19/12 Q1012
RJNT 160700Z 28006KT 240V320 9999 FEW020 BKN050 BKN/// 21/10 Q1012
RJNT 160600Z 29006KT 260V340 9999 FEW020 SCT040 BKN/// 22/10 Q1012
RJNT 160500Z 29006KT 240V330 9999 FEW020 SCT040 BKN/// 21/11 Q1012
RJNT 160400Z 30007KT 260V330 9999 FEW010 SCT030 BKN040 22/12 Q1012
RJNT 160300Z VRB03KT 9999 FEW030 BKN/// 21/14 Q1013
RJNT 160200Z 28005KT 240V320 9999 FEW030 BKN/// 20/13 Q1014
RJNT 160100Z VRB01KT 9999 FEW030 OVC/// 19/11 Q1014
RJNT 160000Z 19003KT 130V230 9999 FEW020 OVC/// 18/11 Q1015
RJNT 152300Z 20004KT 9999 FEW020 BKN060 BKN080 16/12 Q1016
RJNT 152200Z 29005KT 240V320 9999 FEW020 SCT060 BKN080 14/12 Q1016
RJNT 152110Z VRB02KT 9999 FEW020 BKN080 BKN/// 16/11 Q1015 RMK 1CU020 5AC080 A3000
RJNT 151200Z 22002KT 9999 FEW030 15/13 Q1017
RJNT 151100Z 21002KT 9999 FEW030 SCT070 16/13 Q1016
RJNT 151000Z 23003KT 180V260 9999 FEW030 16/13 Q1017
RJNT 150900Z 20003KT 9999 FEW040 17/13 Q1016
RJNT 150800Z VRB01KT 9999 FEW040 20/12 Q1016
RJNT 150700Z 36005KT 9999 FEW030 20/12 Q1016
RJNT 150600Z 01009KT 9999 FEW030 21/12 Q1016
RJNT 150500Z 35006KT 9999 FEW030 SCT170 21/13 Q1015
RJNT 150400Z 36009KT 9999 FEW020 BKN170 21/14 Q1016